createdAt,value
2022-12-18T00:01:25.660Z,11.49
2022-12-18T00:03:52.354Z,11.63
2022-12-18T00:06:18.842Z,10.24
2022-12-18T00:08:45.289Z,9.61
2022-12-18T00:11:19.016Z,9.99
2022-12-18T00:14:05.424Z,9.88
2022-12-18T00:19:14.439Z,9.10
2022-12-18T00:21:40.956Z,9.78
2022-12-18T00:24:07.593Z,10.74
2022-12-18T00:26:35.603Z,9.99
2022-12-18T00:29:20.431Z,10.53
2022-12-18T00:31:46.974Z,9.57
2022-12-18T00:34:13.401Z,8.54
2022-12-18T00:36:39.960Z,8.55
2022-12-18T00:39:06.381Z,7.84
2022-12-18T00:41:35.244Z,8.20
2022-12-18T00:44:01.736Z,8.46
2022-12-18T00:46:30.405Z,8.91
2022-12-18T00:48:57.841Z,9.79
2022-12-18T00:51:24.320Z,9.66
2022-12-18T00:53:51.213Z,10.80
2022-12-18T00:56:18.512Z,11.37
2022-12-18T00:58:48.219Z,11.55
2022-12-18T01:01:15.021Z,11.36
2022-12-18T01:03:48.011Z,11.89
2022-12-18T01:06:15.595Z,12.38
2022-12-18T01:08:48.335Z,12.28
2022-12-18T01:11:14.691Z,12.45
2022-12-18T01:13:46.776Z,14.47
2022-12-18T01:16:13.442Z,12.36
2022-12-18T01:18:39.889Z,11.04
2022-12-18T01:21:06.297Z,10.75
2022-12-18T01:23:32.718Z,10.48
2022-12-18T01:25:59.131Z,12.32
2022-12-18T01:28:25.590Z,13.54
2022-12-18T01:30:52.023Z,19.34
2022-12-18T01:33:18.560Z,17.23
2022-12-18T01:35:44.915Z,15.54
2022-12-18T01:38:11.295Z,12.38
2022-12-18T01:40:38.118Z,11.06
2022-12-18T01:43:06.901Z,11.16
2022-12-18T01:45:33.432Z,11.25
2022-12-18T01:47:59.886Z,10.87
2022-12-18T01:50:26.349Z,11.53
2022-12-18T01:52:52.744Z,10.31
2022-12-18T01:55:19.201Z,10.79
2022-12-18T01:57:45.823Z,10.61
2022-12-18T02:00:13.990Z,10.18
2022-12-18T02:02:40.502Z,9.65
2022-12-18T02:05:06.995Z,9.94
2022-12-18T02:07:33.403Z,9.65
2022-12-18T02:09:59.947Z,10.34
2022-12-18T02:12:26.374Z,11.17
2022-12-18T02:14:52.771Z,10.81
2022-12-18T02:17:19.203Z,11.19
2022-12-18T02:19:45.595Z,10.37
2022-12-18T02:22:11.998Z,10.00
2022-12-18T02:24:41.363Z,10.72
2022-12-18T02:27:07.790Z,10.89
2022-12-18T02:29:34.271Z,9.17
2022-12-18T02:32:00.838Z,9.02
2022-12-18T02:34:27.251Z,8.31
2022-12-18T02:36:53.820Z,8.27
2022-12-18T02:39:20.246Z,9.58
2022-12-18T02:41:49.447Z,9.10
2022-12-18T02:44:15.887Z,8.20
2022-12-18T02:46:42.279Z,8.71
2022-12-18T02:49:08.706Z,9.16
2022-12-18T02:51:35.069Z,9.53
2022-12-18T02:54:01.477Z,9.39
2022-12-18T02:56:27.823Z,9.69
2022-12-18T02:58:54.260Z,9.16
2022-12-18T03:01:20.740Z,8.42
2022-12-18T03:03:47.218Z,8.73
2022-12-18T03:06:23.721Z,8.91
2022-12-18T03:08:50.148Z,9.04
2022-12-18T03:11:16.550Z,9.67
2022-12-18T03:13:43.203Z,9.19
2022-12-18T03:16:09.662Z,9.44
2022-12-18T03:18:36.043Z,9.14
2022-12-18T03:21:02.477Z,9.08
2022-12-18T03:23:28.868Z,8.94
2022-12-18T03:25:55.294Z,8.17
2022-12-18T03:28:21.863Z,7.78
2022-12-18T03:30:48.476Z,7.31
2022-12-18T03:33:14.878Z,7.26
2022-12-18T03:35:42.021Z,7.05
2022-12-18T03:38:10.894Z,7.03
2022-12-18T03:40:38.016Z,6.91
2022-12-18T03:43:04.477Z,7.21
2022-12-18T03:45:30.888Z,6.67
2022-12-18T03:50:23.783Z,6.89
2022-12-18T03:52:56.393Z,7.68
2022-12-18T03:55:22.755Z,13.18
2022-12-18T03:57:49.158Z,9.07
2022-12-18T04:00:16.013Z,7.77
2022-12-18T04:02:43.127Z,7.71
2022-12-18T04:05:09.606Z,7.41
2022-12-18T04:07:36.029Z,7.35
2022-12-18T04:10:02.420Z,8.44
2022-12-18T04:12:28.858Z,8.32
2022-12-18T04:14:55.280Z,8.20
2022-12-18T04:17:21.701Z,8.21
2022-12-18T04:19:48.168Z,8.62
2022-12-18T04:22:14.522Z,9.63
2022-12-18T04:24:40.913Z,10.00
2022-12-18T04:27:07.299Z,11.63
2022-12-18T04:29:33.684Z,11.34
2022-12-18T04:32:00.129Z,11.83
2022-12-18T04:34:26.656Z,11.41
2022-12-18T04:36:53.017Z,11.00
2022-12-18T04:39:19.540Z,11.33
2022-12-18T04:41:45.968Z,9.32
2022-12-18T04:44:12.637Z,9.41
2022-12-18T04:46:39.127Z,10.98
2022-12-18T04:49:05.589Z,10.09
2022-12-18T04:51:34.178Z,10.61
2022-12-18T04:54:00.774Z,10.84
2022-12-18T04:56:27.167Z,10.85
2022-12-18T04:58:53.554Z,9.28
2022-12-18T05:01:20.015Z,8.41
2022-12-18T05:03:46.662Z,7.85
2022-12-18T05:06:13.088Z,9.48
2022-12-18T05:08:39.437Z,11.50
2022-12-18T05:11:05.870Z,10.62
2022-12-18T05:13:32.245Z,8.95
2022-12-18T05:15:58.782Z,8.47
2022-12-18T05:18:26.502Z,7.06
2022-12-18T05:20:52.918Z,6.51
2022-12-18T05:23:19.263Z,6.69
2022-12-18T05:25:46.896Z,6.22
2022-12-18T05:28:13.263Z,6.63
2022-12-18T05:30:39.783Z,7.19
2022-12-18T05:33:06.129Z,7.88
2022-12-18T05:35:32.512Z,7.28
2022-12-18T05:37:58.955Z,6.68
2022-12-18T05:40:25.345Z,6.86
2022-12-18T05:42:51.681Z,7.54
2022-12-18T05:45:26.678Z,8.17
2022-12-18T05:47:53.252Z,7.29
2022-12-18T05:50:20.797Z,6.71
2022-12-18T05:52:47.827Z,6.83
2022-12-18T05:55:14.185Z,7.09
2022-12-18T05:57:40.512Z,8.22
2022-12-18T06:00:06.981Z,9.56
2022-12-18T06:02:33.655Z,11.01
2022-12-18T06:05:01.307Z,11.41
2022-12-18T06:07:27.712Z,10.91
2022-12-18T06:09:54.093Z,10.56
2022-12-18T06:12:20.719Z,9.41
2022-12-18T06:14:47.093Z,8.08
2022-12-18T06:17:13.424Z,7.23
2022-12-18T06:19:39.833Z,6.46
2022-12-18T06:22:06.296Z,6.75
2022-12-18T06:24:32.695Z,6.42
2022-12-18T06:26:59.082Z,6.42
2022-12-18T06:29:25.494Z,6.30
2022-12-18T06:31:52.050Z,7.72
2022-12-18T06:34:18.444Z,6.71
2022-12-18T06:36:47.373Z,6.98
2022-12-18T06:39:16.777Z,6.78
2022-12-18T06:41:43.243Z,7.79
2022-12-18T06:44:09.595Z,6.42
2022-12-18T06:46:37.444Z,5.81
2022-12-18T06:49:03.900Z,5.78
2022-12-18T06:51:30.297Z,7.29
2022-12-18T06:53:56.863Z,7.79
2022-12-18T06:56:23.344Z,6.13
2022-12-18T06:58:49.736Z,5.98
2022-12-18T07:01:16.229Z,6.76
2022-12-18T07:03:43.268Z,7.85
2022-12-18T07:06:10.363Z,6.52
2022-12-18T07:08:36.776Z,6.02
2022-12-18T07:11:03.114Z,6.27
2022-12-18T07:13:29.544Z,6.45
2022-12-18T07:15:56.039Z,6.48
2022-12-18T07:18:22.417Z,6.89
2022-12-18T07:20:48.744Z,6.64
2022-12-18T07:23:15.398Z,6.28
2022-12-18T07:25:41.718Z,5.72
2022-12-18T07:28:10.607Z,5.00
2022-12-18T07:30:41.851Z,5.34
2022-12-18T07:33:08.611Z,4.56
2022-12-18T07:35:38.011Z,4.34
2022-12-18T07:38:04.452Z,4.48
2022-12-18T07:40:30.868Z,4.50
2022-12-18T07:42:57.291Z,4.76
2022-12-18T07:45:23.689Z,4.55
2022-12-18T07:47:50.122Z,4.64
2022-12-18T07:50:16.513Z,5.19
2022-12-18T07:52:42.874Z,5.03
2022-12-18T07:55:09.230Z,4.57
2022-12-18T07:57:50.803Z,5.08
2022-12-18T08:00:18.372Z,6.15
2022-12-18T08:02:44.829Z,6.45
2022-12-18T08:05:11.271Z,6.15
2022-12-18T08:07:37.619Z,5.58
2022-12-18T08:10:06.853Z,7.19
2022-12-18T08:12:33.232Z,7.44
2022-12-18T08:14:59.672Z,5.89
2022-12-18T08:17:26.069Z,5.22
2022-12-18T08:19:52.600Z,4.82
2022-12-18T08:22:18.966Z,5.13
2022-12-18T08:24:45.351Z,4.38
2022-12-18T08:29:58.003Z,3.71
2022-12-18T08:32:25.618Z,4.06
2022-12-18T08:34:52.130Z,3.80
2022-12-18T08:37:18.479Z,3.48
2022-12-18T08:39:44.853Z,3.17
2022-12-18T08:42:11.277Z,3.23
2022-12-18T08:44:37.652Z,3.19
2022-12-18T08:47:04.037Z,3.97
2022-12-18T08:49:30.534Z,3.95
2022-12-18T08:51:56.908Z,3.83
2022-12-18T08:54:23.333Z,3.50
2022-12-18T08:56:49.705Z,4.70
2022-12-18T08:59:19.682Z,4.66
2022-12-18T09:01:46.788Z,4.29
2022-12-18T09:04:13.277Z,4.22
2022-12-18T09:06:39.674Z,4.11
2022-12-18T09:09:06.014Z,4.90
2022-12-18T09:11:32.448Z,5.78
2022-12-18T09:13:58.813Z,5.66
2022-12-18T09:16:30.316Z,5.14
2022-12-18T09:18:58.495Z,3.83
2022-12-18T09:21:24.923Z,3.62
2022-12-18T09:23:53.707Z,4.15
2022-12-18T09:26:20.084Z,4.50
2022-12-18T09:28:49.011Z,4.05
2022-12-18T09:31:15.585Z,3.87
2022-12-18T09:33:44.848Z,3.57
2022-12-18T09:36:11.542Z,3.45
2022-12-18T09:53:05.061Z,3.84
2022-12-18T09:55:37.219Z,4.09
2022-12-18T09:58:04.343Z,3.32
2022-12-18T10:00:30.786Z,3.81
2022-12-18T10:02:57.391Z,4.22
2022-12-18T10:05:29.085Z,4.20
2022-12-18T10:07:55.559Z,5.07
2022-12-18T10:10:22.053Z,8.08
2022-12-18T10:13:04.514Z,5.63
2022-12-18T10:15:38.400Z,3.96
2022-12-18T10:18:04.824Z,3.85
2022-12-18T10:20:31.277Z,4.19
2022-12-18T10:23:05.572Z,4.05
2022-12-18T10:25:31.955Z,4.34
2022-12-18T10:28:01.438Z,7.00
2022-12-18T10:30:28.052Z,5.01
2022-12-18T10:33:09.885Z,4.39
2022-12-18T10:35:36.280Z,3.98
2022-12-18T10:38:02.689Z,3.81
2022-12-18T10:40:29.068Z,4.08
2022-12-18T10:42:55.616Z,4.28
2022-12-18T10:45:21.985Z,4.69
2022-12-18T10:47:55.654Z,5.94
2022-12-18T10:50:22.210Z,8.63
2022-12-18T10:52:50.680Z,7.09
2022-12-18T10:55:17.124Z,6.91
2022-12-18T10:57:54.584Z,6.84
2022-12-18T11:00:20.998Z,7.26
2022-12-18T11:02:47.503Z,7.41
2022-12-18T11:05:13.970Z,7.60
2022-12-18T11:07:41.776Z,7.92
2022-12-18T11:10:08.211Z,8.94
2022-12-18T11:12:34.603Z,11.83
2022-12-18T11:15:03.261Z,9.02
2022-12-18T11:17:32.654Z,8.55
2022-12-18T11:19:59.018Z,8.82
2022-12-18T11:22:26.315Z,8.80
2022-12-18T11:25:30.901Z,9.14
2022-12-18T11:27:50.865Z,9.75
2022-12-18T11:30:18.113Z,9.64
2022-12-18T11:32:50.111Z,10.25
2022-12-18T11:35:20.335Z,9.91
2022-12-18T11:37:49.218Z,10.36
2022-12-18T11:40:18.512Z,10.77
2022-12-18T11:42:44.910Z,10.83
2022-12-18T11:45:11.391Z,10.94
2022-12-18T11:47:37.771Z,10.94
2022-12-18T11:50:04.226Z,11.21
2022-12-18T11:52:30.615Z,10.77
2022-12-18T11:54:57.093Z,10.71
2022-12-18T11:57:23.483Z,10.22
2022-12-18T11:59:49.809Z,10.09
2022-12-18T12:02:16.352Z,10.24
2022-12-18T12:04:42.888Z,12.15
2022-12-18T12:07:09.323Z,14.41
2022-12-18T12:09:36.986Z,10.41
2022-12-18T12:12:03.380Z,10.00
2022-12-18T12:14:29.791Z,9.92
2022-12-18T12:16:56.156Z,10.06
2022-12-18T12:19:22.526Z,10.03
2022-12-18T12:21:48.872Z,10.02
2022-12-18T12:24:15.214Z,10.14
2022-12-18T12:26:41.569Z,10.07
2022-12-18T12:29:10.457Z,9.88
2022-12-18T12:31:37.203Z,9.88
2022-12-18T12:34:03.682Z,9.54
2022-12-18T12:36:32.199Z,8.80
2022-12-18T12:38:58.629Z,9.41
2022-12-18T12:41:24.989Z,8.69
2022-12-18T12:43:51.895Z,8.37
2022-12-18T12:46:21.007Z,9.00
2022-12-18T12:48:48.875Z,9.90
2022-12-18T12:51:15.543Z,9.80
2022-12-18T12:53:42.368Z,9.93
2022-12-18T12:56:09.185Z,9.82
2022-12-18T12:58:35.804Z,10.44
2022-12-18T13:01:02.204Z,12.28
2022-12-18T13:03:28.871Z,13.28
2022-12-18T13:05:55.294Z,12.76
2022-12-18T13:08:22.216Z,13.96
2022-12-18T13:10:48.798Z,15.91
2022-12-18T13:13:23.751Z,15.63
2022-12-18T13:15:50.901Z,15.72
2022-12-18T13:18:17.935Z,14.99
2022-12-18T13:23:30.723Z,19.09
2022-12-18T13:25:57.202Z,18.97
2022-12-18T13:31:13.928Z,21.28
2022-12-18T13:34:02.058Z,19.89
2022-12-18T13:36:35.174Z,19.09
2022-12-18T13:39:02.503Z,18.96
2022-12-18T13:41:28.899Z,19.30
2022-12-18T13:43:58.137Z,19.32
2022-12-18T13:46:26.939Z,19.14
2022-12-18T13:48:53.412Z,18.85
2022-12-18T13:51:20.043Z,18.80
2022-12-18T13:53:46.502Z,18.43
2022-12-18T13:58:53.658Z,19.28
2022-12-18T14:01:20.198Z,19.28
2022-12-18T14:03:47.417Z,18.94
2022-12-18T14:06:14.535Z,19.20
2022-12-18T14:08:42.007Z,18.38
2022-12-18T14:11:08.702Z,20.01
2022-12-18T14:13:38.418Z,20.13
2022-12-18T14:16:04.886Z,19.72
2022-12-18T14:18:31.302Z,18.82
2022-12-18T14:20:57.685Z,19.92
2022-12-18T14:23:24.128Z,19.50
2022-12-18T14:25:50.514Z,20.05
2022-12-18T14:28:16.887Z,19.91
2022-12-18T14:30:43.494Z,20.41
2022-12-18T14:33:09.954Z,20.27
2022-12-18T14:35:36.528Z,20.60
2022-12-18T14:38:03.368Z,19.89
2022-12-18T14:40:29.760Z,19.94
2022-12-18T14:42:56.195Z,19.52
2022-12-18T14:45:22.624Z,19.60
2022-12-18T14:47:49.092Z,20.34
2022-12-18T14:50:15.519Z,19.63
2022-12-18T14:52:42.107Z,20.17
2022-12-18T14:55:09.803Z,20.77
2022-12-18T14:57:36.215Z,21.50
2022-12-18T15:00:02.691Z,20.58
2022-12-18T15:02:29.688Z,20.29
2022-12-18T15:04:56.274Z,20.44
2022-12-18T15:07:22.617Z,20.32
2022-12-18T15:09:48.972Z,20.63
2022-12-18T15:12:15.388Z,20.26
2022-12-18T15:14:41.807Z,20.63
2022-12-18T15:17:08.156Z,19.90
2022-12-18T15:19:35.175Z,20.05
2022-12-18T15:22:06.142Z,20.47
2022-12-18T15:24:33.164Z,20.37
2022-12-18T15:26:59.971Z,20.88
2022-12-18T15:29:26.487Z,20.90
2022-12-18T15:31:53.046Z,20.50
2022-12-18T15:34:19.423Z,22.00
2022-12-18T15:36:45.815Z,21.07
2022-12-18T15:39:12.296Z,21.18
2022-12-18T15:41:38.651Z,21.06
2022-12-18T15:44:05.038Z,22.22
2022-12-18T15:46:31.862Z,22.82
2022-12-18T15:49:02.239Z,24.65
2022-12-18T15:51:29.404Z,29.34
2022-12-18T15:53:57.128Z,48.52
2022-12-18T15:56:24.092Z,25.12
2022-12-18T15:58:50.721Z,22.32
2022-12-18T16:01:17.225Z,22.83
2022-12-18T16:03:44.236Z,26.77
2022-12-18T16:06:11.055Z,23.37
2022-12-18T16:08:37.418Z,22.30
2022-12-18T16:11:05.438Z,22.17
2022-12-18T16:13:31.781Z,22.48
2022-12-18T16:15:58.320Z,22.74
2022-12-18T16:18:24.864Z,21.91
2022-12-18T16:20:51.340Z,22.03
2022-12-18T16:23:17.732Z,22.65
2022-12-18T16:25:44.146Z,22.10
2022-12-18T16:28:10.482Z,21.38
2022-12-18T16:30:39.019Z,21.76
2022-12-18T16:33:07.491Z,22.34
2022-12-18T16:35:34.141Z,22.05
2022-12-18T16:38:01.923Z,21.79
2022-12-18T16:40:28.302Z,21.56
2022-12-18T16:42:54.668Z,21.75
2022-12-18T16:45:22.068Z,21.91
2022-12-18T16:47:48.415Z,22.63
2022-12-18T16:50:14.848Z,21.92
2022-12-18T16:52:41.313Z,23.98
2022-12-18T16:55:07.723Z,25.95
2022-12-18T16:57:34.202Z,34.04
2022-12-18T17:00:05.172Z,26.77
2022-12-18T17:02:33.496Z,23.32
2022-12-18T17:05:00.159Z,23.48
2022-12-18T17:07:26.538Z,21.92
2022-12-18T17:09:52.992Z,21.27
2022-12-18T17:12:19.459Z,21.63
2022-12-18T17:14:45.839Z,21.84
2022-12-18T17:17:22.346Z,19.44
2022-12-18T17:19:49.611Z,18.71
2022-12-18T17:22:16.001Z,21.66
2022-12-18T17:24:42.367Z,22.77
2022-12-18T17:27:08.804Z,20.78
2022-12-18T17:29:35.237Z,18.79
2022-12-18T17:32:01.695Z,18.37
2022-12-18T17:34:28.045Z,18.73
2022-12-18T17:36:54.953Z,17.97
2022-12-18T17:39:21.307Z,17.30
2022-12-18T17:41:47.739Z,17.30
2022-12-18T17:44:14.105Z,16.91
2022-12-18T17:46:40.547Z,17.78
2022-12-18T17:49:06.956Z,19.88
2022-12-18T17:51:33.546Z,18.52
2022-12-18T17:53:59.911Z,18.25
2022-12-18T17:56:26.328Z,18.29
2022-12-18T17:58:53.529Z,18.98
2022-12-18T18:01:19.947Z,20.60
2022-12-18T18:03:47.364Z,19.20
2022-12-18T18:06:16.719Z,21.41
2022-12-18T18:08:43.130Z,21.25
2022-12-18T18:11:09.577Z,19.67
2022-12-18T18:13:39.713Z,21.79
2022-12-18T18:16:08.556Z,22.96
2022-12-18T18:18:34.996Z,26.22
2022-12-18T18:21:01.360Z,24.47
2022-12-18T18:23:28.302Z,23.41
2022-12-18T18:25:54.739Z,22.24
2022-12-18T18:28:21.797Z,21.14
2022-12-18T18:30:48.368Z,21.40
2022-12-18T18:33:14.948Z,21.99
2022-12-18T18:35:56.542Z,20.28
2022-12-18T18:38:22.950Z,20.90
2022-12-18T18:40:49.381Z,20.89
2022-12-18T18:43:15.875Z,19.47
2022-12-18T18:45:42.487Z,19.94
2022-12-18T18:48:13.760Z,26.08
2022-12-18T18:50:40.095Z,34.98
2022-12-18T18:53:06.512Z,27.80
2022-12-18T18:55:33.151Z,23.27
2022-12-18T18:57:59.565Z,25.22
2022-12-18T19:00:27.569Z,27.27
2022-12-18T19:03:00.307Z,23.14
2022-12-18T19:05:27.048Z,20.45
2022-12-18T19:07:53.426Z,19.96
2022-12-18T19:10:19.762Z,20.94
2022-12-18T19:12:47.650Z,21.85
2022-12-18T19:15:14.039Z,22.22
2022-12-18T19:17:40.836Z,22.20
2022-12-18T19:20:07.678Z,21.27
2022-12-18T19:22:34.815Z,20.69
2022-12-18T19:25:01.171Z,24.12
2022-12-18T19:27:27.621Z,25.92
2022-12-18T19:29:53.992Z,23.23
2022-12-18T19:32:20.430Z,22.77
2022-12-18T19:34:47.096Z,20.56
2022-12-18T19:37:14.504Z,24.01
2022-12-18T19:39:40.977Z,26.69
2022-12-18T19:42:07.357Z,26.17
2022-12-18T19:44:33.742Z,25.66
2022-12-18T19:47:00.965Z,30.27
2022-12-18T19:49:27.330Z,25.74
2022-12-18T19:51:53.703Z,22.68
2022-12-18T19:54:20.144Z,22.13
2022-12-18T19:56:46.544Z,22.85
2022-12-18T19:59:12.906Z,21.94
2022-12-18T20:01:39.510Z,18.82
2022-12-18T20:04:06.116Z,19.07
2022-12-18T20:06:33.164Z,20.32
2022-12-18T20:09:00.738Z,20.13
2022-12-18T20:11:29.663Z,16.91
2022-12-18T20:13:56.087Z,14.05
2022-12-18T20:16:22.508Z,13.74
2022-12-18T20:18:48.957Z,12.41
2022-12-18T20:21:15.504Z,12.92
2022-12-18T20:23:42.391Z,12.85
2022-12-18T20:26:09.057Z,11.64
2022-12-18T20:28:35.416Z,11.50
2022-12-18T20:31:01.923Z,11.55
2022-12-18T20:33:28.658Z,11.69
2022-12-18T20:35:55.179Z,11.32
2022-12-18T20:38:21.839Z,11.57
2022-12-18T20:40:56.668Z,12.74
2022-12-18T20:43:23.499Z,12.13
2022-12-18T20:45:51.088Z,11.87
2022-12-18T20:48:20.093Z,13.59
2022-12-18T20:50:50.482Z,21.59
2022-12-18T20:53:16.868Z,24.63
2022-12-18T20:55:43.273Z,19.89
2022-12-18T20:58:09.719Z,35.74
2022-12-18T21:00:40.052Z,32.74
2022-12-18T21:03:26.593Z,30.85
2022-12-18T21:05:53.064Z,15.33
2022-12-18T21:08:19.453Z,13.54
2022-12-18T21:10:45.933Z,14.40
2022-12-18T21:13:13.130Z,14.48
2022-12-18T21:15:47.894Z,14.24
2022-12-18T21:18:15.335Z,13.74
2022-12-18T21:20:42.096Z,11.98
2022-12-18T21:23:13.210Z,13.07
2022-12-18T21:25:43.297Z,13.44
2022-12-18T21:28:09.613Z,12.51
2022-12-18T21:30:35.966Z,14.76
2022-12-18T21:35:50.197Z,21.54
2022-12-18T21:38:20.284Z,22.10
2022-12-18T21:40:46.819Z,22.92
2022-12-18T21:43:13.280Z,22.87
2022-12-18T21:45:44.908Z,22.44
2022-12-18T21:48:21.679Z,23.51
2022-12-18T21:50:49.185Z,23.45
2022-12-18T21:53:15.653Z,23.64
2022-12-18T21:55:44.888Z,23.50
2022-12-18T21:58:14.372Z,23.12
2022-12-18T22:00:48.872Z,22.84
2022-12-18T22:03:18.446Z,22.81
2022-12-18T22:05:45.706Z,24.44
2022-12-18T22:08:13.235Z,23.57
2022-12-18T22:10:39.792Z,20.62
2022-12-18T22:13:09.591Z,21.87
2022-12-18T22:15:36.045Z,22.76
2022-12-18T22:18:02.467Z,24.15
2022-12-18T22:20:31.625Z,25.07
2022-12-18T22:22:58.105Z,24.89
2022-12-18T22:25:27.192Z,22.93
2022-12-18T22:27:56.290Z,23.17
2022-12-18T22:30:22.788Z,23.44
2022-12-18T22:32:50.180Z,22.94
2022-12-18T22:35:19.524Z,22.89
2022-12-18T22:37:46.101Z,23.34
2022-12-18T22:40:13.101Z,23.77
2022-12-18T22:42:40.447Z,24.89
2022-12-18T22:45:06.854Z,24.33
2022-12-18T22:47:33.283Z,23.00
2022-12-18T22:49:59.653Z,22.90
2022-12-18T22:52:28.840Z,21.60
2022-12-18T22:54:56.319Z,22.13
2022-12-18T22:57:22.698Z,22.88
2022-12-18T22:59:50.999Z,23.91
2022-12-18T23:02:20.029Z,23.34
2022-12-18T23:07:26.907Z,22.11
2022-12-18T23:10:00.584Z,22.87
2022-12-18T23:12:27.510Z,22.77
2022-12-18T23:14:54.199Z,22.44
2022-12-18T23:17:20.591Z,20.15
2022-12-18T23:19:49.204Z,22.17
2022-12-18T23:22:15.912Z,22.80
2022-12-18T23:24:42.385Z,22.83
2022-12-18T23:27:11.349Z,24.04
2022-12-18T23:29:38.017Z,23.49
2022-12-18T23:32:04.413Z,22.95
2022-12-18T23:34:30.783Z,22.11
2022-12-18T23:36:59.962Z,21.01
2022-12-18T23:39:29.762Z,20.30
2022-12-18T23:41:57.012Z,20.23
2022-12-18T23:44:23.435Z,19.73
2022-12-18T23:46:50.011Z,19.30
2022-12-18T23:49:16.507Z,19.88
2022-12-18T23:51:42.944Z,20.31
2022-12-18T23:54:09.895Z,18.25
2022-12-18T23:56:36.276Z,17.35
2022-12-18T23:59:05.585Z,16.25
